Terminal Aerodrome Forecast
Issued by NWS

Home | Current Version | Previous Version | Text Only | Print | Product List | Glossary On
Versions: 1 2 3 4 5 6 7 8 9 10 11 12 13 14 15 16 17 18 19 20 21 22
000
FTUS43 KUNR 241124
TAFGCC
TAF
KGCC 241124Z 2412/2512 03011KT 5SM -RA BR OVC006
     FM241700 03015KT 3SM -RA OVC010
     FM242200 36011KT 6SM -SHRA OVC010
     FM250100 34009KT 2SM -RA BR OVC004=

USA.gov is the U.S. government's official web portal to all federal, state and local government web resources and services.